Time;durP1;ratioP1;P1;durP2;ratioP2;P2;SDS_P1;SDS_P2;PMS_P1;PMS_P2;Temp;Humidity;BMP_temperature;BMP_pressure;BME280_temperature;BME280_humidity;BME280_pressure;Samples;Min_cycle;Max_cycle;Signal;HPM_P1;HPM_P2
2021/05/16 00:01:08;;;;;;;2.17;2.03;;;12.50;99.90;;;;;;5112962;28;20489;-57
2021/05/16 00:03:35;;;;;;;2.23;2.10;;;12.60;99.90;;;;;;5113004;28;20450;-57
2021/05/16 00:06:01;;;;;;;2.70;2.50;;;12.70;99.90;;;;;;5093450;27;20971;-59
2021/05/16 00:08:26;;;;;;;2.53;2.20;;;12.70;99.90;;;;;;5114514;27;20785;-58
2021/05/16 00:10:52;;;;;;;2.20;2.10;;;12.70;99.90;;;;;;5112890;28;20438;-57
2021/05/16 00:13:18;;;;;;;4.00;2.30;;;12.80;98.70;;;;;;5112943;28;20654;-57
2021/05/16 00:15:44;;;;;;;4.37;2.37;;;12.80;90.00;;;;;;5083586;28;20482;-57
2021/05/16 00:18:10;;;;;;;2.63;2.07;;;12.80;93.60;;;;;;5111526;27;20450;-57
2021/05/16 00:20:36;;;;;;;1.90;1.80;;;12.90;91.00;;;;;;5098871;28;20586;-57
2021/05/16 00:23:03;;;;;;;2.30;2.10;;;12.90;85.80;;;;;;5106290;28;20192;-57
2021/05/16 00:25:30;;;;;;;3.27;2.27;;;12.90;76.60;;;;;;5112761;28;20809;-57
2021/05/16 00:27:57;;;;;;;2.33;1.90;;;12.90;71.30;;;;;;5112468;28;20449;-57
2021/05/16 00:30:27;;;;;;;2.70;2.50;;;12.90;66.80;;;;;;5112266;28;20446;-56
2021/05/16 00:32:54;;;;;;;1.97;1.87;;;12.90;62.70;;;;;;5093996;28;21462;-57
2021/05/16 00:35:23;;;;;;;2.00;1.80;;;12.90;58.10;;;;;;5112457;28;20510;-58
2021/05/16 00:37:49;;;;;;;3.10;2.50;;;12.90;60.50;;;;;;5093941;28;20473;-57
2021/05/16 00:40:15;;;;;;;2.27;2.07;;;12.90;52.90;;;;;;5090412;28;20957;-59
2021/05/16 00:42:41;;;;;;;2.37;2.17;;;12.90;53.50;;;;;;5110178;28;20190;-57
2021/05/16 00:45:11;;;;;;;2.50;2.30;;;12.90;53.70;;;;;;5093525;28;20509;-57
2021/05/16 00:47:38;;;;;;;2.20;2.10;;;12.90;52.50;;;;;;5112465;27;20242;-57
2021/05/16 00:50:09;;;;;;;2.27;2.17;;;12.80;50.70;;;;;;5111919;28;20445;-55
2021/05/16 00:52:37;;;;;;;2.27;1.80;;;12.80;47.50;;;;;;5111935;28;20450;-58
2021/05/16 00:55:04;;;;;;;2.10;2.00;;;12.80;34.70;;;;;;5111872;28;20515;-56
2021/05/16 00:57:30;;;;;;;2.30;2.07;;;12.70;36.50;;;;;;5114514;27;20477;-58
2021/05/16 00:59:56;;;;;;;2.30;2.10;;;12.60;39.90;;;;;;5093886;28;20463;-57
2021/05/16 01:02:21;;;;;;;2.70;2.20;;;12.60;40.10;;;;;;5111193;28;20199;-56
2021/05/16 01:04:47;;;;;;;2.57;2.00;;;12.70;38.00;;;;;;5112131;28;20255;-59
2021/05/16 01:07:13;;;;;;;2.10;1.93;;;12.70;33.40;;;;;;5111686;27;20197;-56
2021/05/16 01:09:39;;;;;;;1.60;1.50;;;12.70;34.50;;;;;;5096098;28;20188;-58
2021/05/16 01:12:07;;;;;;;4.80;2.20;;;12.80;31.00;;;;;;5112581;27;20189;-57
2021/05/16 01:14:35;;;;;;;2.10;1.90;;;13.00;21.90;;;;;;5111016;28;20498;-57
2021/05/16 01:17:01;;;;;;;2.47;1.80;;;13.10;4.00;;;;;;5094146;28;20777;-55
2021/05/16 01:19:31;;;;;;;2.43;1.93;;;13.00;4.10;;;;;;5111438;28;20521;-57
2021/05/16 01:21:57;;;;;;;2.10;2.00;;;13.10;1.00;;;;;;5093144;28;20800;-56
2021/05/16 01:24:26;;;;;;;2.10;1.83;;;12.90;3.40;;;;;;5111896;28;20758;-57
2021/05/16 01:26:52;;;;;;;2.37;2.00;;;12.90;3.80;;;;;;5076506;28;20463;-56
2021/05/16 01:29:21;;;;;;;2.30;2.10;;;12.90;5.70;;;;;;5092503;28;20942;-58
2021/05/16 01:31:47;;;;;;;3.20;1.97;;;12.90;4.70;;;;;;5092909;28;20974;-57
2021/05/16 01:34:13;;;;;;;2.03;1.90;;;12.90;3.90;;;;;;5112498;27;20487;-57
2021/05/16 01:36:39;;;;;;;2.23;2.13;;;12.80;8.40;;;;;;5111000;28;20824;-57
2021/05/16 01:39:08;;;;;;;2.50;2.07;;;12.70;10.70;;;;;;5110922;28;20439;-58
2021/05/16 01:41:34;;;;;;;2.30;2.10;;;12.70;11.00;;;;;;5111233;28;20864;-57
2021/05/16 01:44:00;;;;;;;2.70;2.50;;;12.50;15.40;;;;;;5111356;28;20445;-58
2021/05/16 01:46:26;;;;;;;2.17;2.07;;;12.50;24.50;;;;;;5109420;28;20271;-59
2021/05/16 01:48:51;;;;;;;1.83;1.73;;;12.50;25.20;;;;;;5111060;28;20654;-57
2021/05/16 01:51:19;;;;;;;2.20;2.00;;;12.50;23.90;;;;;;5111473;28;20627;-56
2021/05/16 01:53:45;;;;;;;2.00;1.90;;;12.50;24.00;;;;;;5111095;28;20534;-58
2021/05/16 01:56:21;;;;;;;2.30;2.10;;;12.50;22.10;;;;;;5110311;28;20446;-57
2021/05/16 01:58:47;;;;;;;2.63;2.43;;;12.60;22.10;;;;;;5110511;28;20450;-57
2021/05/16 02:01:13;;;;;;;2.23;2.07;;;12.60;18.50;;;;;;5076121;28;20952;-57
2021/05/16 02:03:40;;;;;;;2.90;2.70;;;12.60;17.40;;;;;;5107185;28;20474;-58
2021/05/16 02:06:07;;;;;;;2.57;2.37;;;12.70;18.90;;;;;;5110101;28;20479;-58
2021/05/16 02:08:34;;;;;;;2.93;2.60;;;12.70;13.80;;;;;;5110010;28;21004;-57
2021/05/16 02:11:02;;;;;;;2.37;2.17;;;12.70;13.20;;;;;;5109471;28;20968;-57
2021/05/16 02:13:29;;;;;;;2.60;2.40;;;12.80;14.40;;;;;;5099441;28;20451;-57
2021/05/16 02:15:54;;;;;;;2.57;2.37;;;12.80;13.20;;;;;;5102857;28;20410;-57
2021/05/16 02:18:20;;;;;;;3.23;2.10;;;13.30;15.20;;;;;;5110531;28;20930;-57
2021/05/16 02:20:45;;;;;;;1.77;1.67;;;12.80;13.20;;;;;;5110232;28;20184;-57
2021/05/16 02:23:11;;;;;;;3.03;2.43;;;12.80;11.30;;;;;;5110398;28;20337;-56
2021/05/16 02:25:37;;;;;;;1.80;1.70;;;12.80;4.30;;;;;;5110699;28;20266;-56
2021/05/16 02:28:03;;;;;;;2.17;2.07;;;12.70;7.30;;;;;;5109830;28;20196;-57
2021/05/16 02:30:28;;;;;;;3.20;2.00;;;12.70;7.40;;;;;;5110665;28;20189;-57
2021/05/16 02:32:54;;;;;;;2.00;1.80;;;12.70;10.20;;;;;;5109893;28;20448;-57
2021/05/16 02:35:20;;;;;;;1.83;1.73;;;12.60;13.10;;;;;;5108873;28;20225;-56
2021/05/16 02:37:45;;;;;;;2.10;1.53;;;12.60;17.40;;;;;;5109840;28;20450;-56
2021/05/16 02:40:11;;;;;;;1.77;1.40;;;12.60;24.60;;;;;;5110563;28;20276;-58
2021/05/16 02:42:38;;;;;;;2.10;1.90;;;12.60;28.20;;;;;;5109328;28;20199;-58
2021/05/16 02:45:04;;;;;;;2.73;1.53;;;12.60;33.60;;;;;;5092207;28;20800;-57
2021/05/16 02:47:29;;;;;;;1.63;1.53;;;12.60;41.80;;;;;;5108957;28;20443;-57
2021/05/16 02:49:55;;;;;;;1.60;1.43;;;12.60;49.80;;;;;;5110378;28;20439;-57
2021/05/16 02:52:21;;;;;;;1.53;1.30;;;12.70;41.90;;;;;;5091073;28;20189;-58
2021/05/16 02:54:47;;;;;;;1.47;1.37;;;12.70;32.60;;;;;;5108828;28;20661;-57
2021/05/16 02:57:13;;;;;;;1.87;1.43;;;12.80;29.80;;;;;;5110389;28;20200;-56
2021/05/16 02:59:38;;;;;;;2.03;1.60;;;12.80;30.00;;;;;;5109731;28;20451;-56
2021/05/16 03:02:06;;;;;;;1.60;1.33;;;12.70;34.70;;;;;;5110289;28;20185;-56
2021/05/16 03:04:31;;;;;;;1.47;1.37;;;12.80;38.10;;;;;;5109883;28;20268;-56
2021/05/16 03:06:57;;;;;;;1.73;1.60;;;12.80;38.40;;;;;;5109666;28;20600;-56
2021/05/16 03:09:23;;;;;;;1.70;1.50;;;12.80;43.60;;;;;;5110419;27;20221;-57
2021/05/16 03:11:49;;;;;;;2.13;1.63;;;12.80;42.00;;;;;;5113778;28;20645;-56
2021/05/16 03:14:15;;;;;;;1.57;1.47;;;12.80;48.90;;;;;;5112730;28;20450;-56
2021/05/16 03:16:40;;;;;;;1.73;1.63;;;12.80;44.40;;;;;;5112940;28;20193;-57
2021/05/16 03:19:06;;;;;;;1.60;1.50;;;12.80;45.20;;;;;;5105539;28;20418;-57
2021/05/16 03:21:31;;;;;;;1.90;1.67;;;12.90;45.30;;;;;;5093616;28;20186;-58
2021/05/16 03:23:57;;;;;;;3.00;1.53;;;12.90;37.20;;;;;;5104819;28;20181;-57
2021/05/16 03:26:23;;;;;;;1.33;1.23;;;12.90;35.90;;;;;;5087999;28;20245;-57
2021/05/16 03:28:49;;;;;;;1.67;1.10;;;12.90;37.80;;;;;;5101913;28;20201;-58
2021/05/16 03:31:15;;;;;;;1.40;1.30;;;12.90;39.50;;;;;;5113939;28;20511;-59
2021/05/16 03:33:40;;;;;;;2.10;1.43;;;12.90;38.10;;;;;;5113849;28;20178;-57
2021/05/16 03:36:06;;;;;;;1.70;1.57;;;12.90;36.70;;;;;;5111904;27;20279;-57
2021/05/16 03:38:32;;;;;;;4.00;1.57;;;12.90;40.20;;;;;;5113081;28;20189;-57
2021/05/16 03:40:57;;;;;;;1.47;1.37;;;13.00;31.50;;;;;;5095197;28;20284;-56
2021/05/16 03:43:23;;;;;;;1.57;1.47;;;13.00;28.70;;;;;;5111359;28;20186;-56
2021/05/16 03:45:49;;;;;;;1.80;1.70;;;12.80;33.10;;;;;;5095398;28;20201;-57
2021/05/16 03:48:15;;;;;;;1.73;1.63;;;12.90;34.90;;;;;;5112766;28;20216;-56
2021/05/16 03:50:41;;;;;;;1.67;1.57;;;12.90;29.20;;;;;;5112961;28;20546;-56
2021/05/16 03:53:07;;;;;;;2.50;1.83;;;12.90;34.90;;;;;;5113386;28;20432;-56
2021/05/16 03:55:33;;;;;;;1.97;1.77;;;12.90;36.70;;;;;;5106362;28;20524;-56
2021/05/16 03:57:58;;;;;;;2.07;1.97;;;13.00;39.20;;;;;;5098475;28;20267;-58
2021/05/16 04:00:24;;;;;;;2.07;1.90;;;13.00;36.20;;;;;;5113444;28;20431;-58
2021/05/16 04:02:50;;;;;;;2.63;2.10;;;13.10;35.20;;;;;;5110772;28;20184;-57
2021/05/16 04:05:15;;;;;;;3.40;1.90;;;13.10;31.40;;;;;;5112747;28;20291;-58
2021/05/16 04:07:41;;;;;;;1.97;1.87;;;13.10;36.70;;;;;;5111262;28;20193;-57
2021/05/16 04:10:08;;;;;;;2.40;2.20;;;13.10;32.50;;;;;;5109695;28;20174;-58
2021/05/16 04:12:33;;;;;;;2.47;2.27;;;13.20;28.60;;;;;;5109589;28;20792;-57
2021/05/16 04:14:59;;;;;;;2.50;2.30;;;13.20;28.60;;;;;;5111596;28;20450;-57
2021/05/16 04:17:25;;;;;;;2.00;1.90;;;13.20;29.10;;;;;;5111748;28;20234;-56
2021/05/16 04:19:51;;;;;;;2.70;2.50;;;13.20;29.30;;;;;;5110366;28;20186;-58
2021/05/16 04:22:16;;;;;;;2.40;2.30;;;13.20;29.80;;;;;;5111403;28;20870;-57
2021/05/16 04:24:42;;;;;;;3.53;3.03;;;13.10;28.20;;;;;;5106575;28;20444;-56
2021/05/16 04:27:08;;;;;;;3.87;3.47;;;13.20;29.90;;;;;;5111509;28;20185;-58
2021/05/16 04:29:33;;;;;;;4.20;2.90;;;13.20;24.40;;;;;;5111123;28;20178;-58
2021/05/16 04:31:59;;;;;;;3.30;3.00;;;13.20;25.10;;;;;;5111747;28;20178;-57
2021/05/16 04:34:25;;;;;;;4.00;2.70;;;13.20;26.30;;;;;;5111563;28;20186;-56
2021/05/16 04:36:50;;;;;;;4.23;3.10;;;13.30;22.70;;;;;;5096389;28;20189;-57
2021/05/16 04:39:16;;;;;;;3.30;3.10;;;13.20;23.70;;;;;;5104595;28;20221;-56
2021/05/16 04:41:42;;;;;;;3.73;3.43;;;13.30;21.30;;;;;;5106036;28;20193;-57
2021/05/16 04:44:07;;;;;;;3.87;3.57;;;13.30;22.60;;;;;;5096176;28;20190;-57
2021/05/16 04:46:34;;;;;;;3.27;3.07;;;13.30;20.50;;;;;;5111509;28;20471;-57
2021/05/16 04:49:00;;;;;;;4.03;3.70;;;13.30;18.50;;;;;;5106592;28;20277;-56
2021/05/16 04:51:25;;;;;;;4.20;3.80;;;13.40;18.70;;;;;;5107317;28;20550;-57
2021/05/16 04:53:52;;;;;;;5.90;3.00;;;13.40;13.50;;;;;;5110625;28;20193;-58
2021/05/16 04:56:18;;;;;;;3.80;3.50;;;13.40;12.40;;;;;;5109158;28;20273;-58
2021/05/16 04:58:43;;;;;;;4.07;3.70;;;13.50;12.90;;;;;;5109760;28;20547;-57
2021/05/16 05:01:09;;;;;;;4.30;3.90;;;13.60;11.60;;;;;;5110737;28;20261;-56
2021/05/16 05:03:35;;;;;;;4.03;3.73;;;13.70;10.30;;;;;;5110150;28;20194;-56
2021/05/16 05:06:01;;;;;;;5.10;4.60;;;13.90;1.00;;;;;;5098223;28;20209;-56
2021/05/16 05:08:27;;;;;;;4.10;3.80;;;13.90;1.00;;;;;;5111113;28;20216;-58
2021/05/16 05:10:53;;;;;;;4.30;4.00;;;13.90;1.00;;;;;;5108626;28;20475;-57
2021/05/16 05:13:19;;;;;;;4.83;4.43;;;13.90;1.00;;;;;;5109145;28;20582;-57
2021/05/16 05:15:45;;;;;;;4.17;3.77;;;13.90;1.00;;;;;;5111047;28;20492;-56
2021/05/16 05:18:10;;;;;;;4.40;3.83;;;13.90;1.00;;;;;;5107633;28;20818;-57
2021/05/16 05:20:36;;;;;;;4.60;4.20;;;13.90;1.00;;;;;;5106257;28;20235;-56
2021/05/16 05:23:02;;;;;;;5.63;4.50;;;13.90;1.00;;;;;;5109890;28;20186;-56
2021/05/16 05:25:28;;;;;;;4.63;4.23;;;14.00;1.00;;;;;;5107835;28;20205;-57
2021/05/16 05:27:57;;;;;;;4.90;3.70;;;13.90;1.00;;;;;;5108555;28;20462;-57
2021/05/16 05:30:24;;;;;;;5.60;4.10;;;13.80;1.00;;;;;;5108941;28;20846;-57
2021/05/16 05:32:49;;;;;;;2.40;2.20;;;13.90;1.00;;;;;;5095749;28;20467;-57
2021/05/16 05:35:15;;;;;;;2.73;2.50;;;14.00;1.00;;;;;;5107159;28;20471;-57
2021/05/16 05:37:41;;;;;;;2.87;2.57;;;14.10;1.00;;;;;;5109951;28;20185;-58
2021/05/16 05:40:08;;;;;;;3.60;2.10;;;14.10;1.00;;;;;;5105898;28;20440;-58
2021/05/16 05:42:33;;;;;;;1.63;1.50;;;14.20;1.00;;;;;;5094674;28;20485;-57
2021/05/16 05:44:59;;;;;;;2.60;1.50;;;14.20;1.00;;;;;;5109548;28;20443;-57
2021/05/16 05:47:24;;;;;;;1.90;1.53;;;14.30;1.00;;;;;;5093262;28;20178;-57
2021/05/16 05:49:52;;;;;;;1.33;1.23;;;14.40;1.00;;;;;;5109136;28;20182;-56
2021/05/16 05:52:18;;;;;;;1.33;0.80;;;14.50;1.00;;;;;;5094722;28;20247;-57
2021/05/16 05:54:43;;;;;;;1.23;0.70;;;14.60;1.00;;;;;;5108689;28;20789;-57
2021/05/16 05:57:09;;;;;;;1.10;0.70;;;14.90;1.00;;;;;;5095560;28;20684;-56
2021/05/16 05:59:34;;;;;;;1.90;0.83;;;15.10;1.00;;;;;;5094547;28;20192;-57
2021/05/16 06:02:01;;;;;;;0.80;0.60;;;15.30;1.00;;;;;;5102442;28;20188;-55
2021/05/16 06:04:26;;;;;;;0.87;0.67;;;15.40;1.00;;;;;;5107660;28;20265;-56
2021/05/16 06:06:52;;;;;;;2.47;0.87;;;15.50;1.00;;;;;;5107669;28;20578;-57
2021/05/16 06:09:18;;;;;;;3.17;0.53;;;15.70;1.00;;;;;;5108839;28;20190;-59
2021/05/16 06:11:43;;;;;;;0.80;0.80;;;15.90;1.00;;;;;;5108892;28;20213;-58
2021/05/16 06:14:09;;;;;;;1.37;0.70;;;16.00;1.00;;;;;;5109191;28;20186;-57
2021/05/16 06:16:34;;;;;;;1.10;0.73;;;16.20;1.00;;;;;;5107034;28;20221;-56
2021/05/16 06:19:00;;;;;;;3.53;0.73;;;16.40;1.00;;;;;;5108038;28;20266;-56
2021/05/16 06:21:27;;;;;;;2.07;0.73;;;16.30;1.00;;;;;;5095161;28;20190;-56
2021/05/16 06:24:09;;;;;;;0.87;0.77;;;16.20;1.00;;;;;;5106465;28;20182;-56
2021/05/16 06:26:45;;;;;;;4.03;1.20;;;15.90;1.00;;;;;;5107733;28;20464;-57
2021/05/16 06:29:11;;;;;;;3.33;0.93;;;15.70;1.00;;;;;;5103066;28;20490;-56
2021/05/16 06:31:37;;;;;;;2.47;0.70;;;15.70;1.00;;;;;;5108902;28;20854;-58
2021/05/16 06:34:03;;;;;;;0.40;0.40;;;15.30;1.00;;;;;;5092784;28;20511;-57
2021/05/16 06:36:30;;;;;;;2.30;0.70;;;14.90;1.00;;;;;;5109085;28;20575;-56
2021/05/16 06:38:55;;;;;;;1.83;0.70;;;14.70;1.00;;;;;;5106309;28;20459;-57
2021/05/16 06:41:22;;;;;;;1.97;0.80;;;14.70;1.00;;;;;;5107303;28;20443;-56
2021/05/16 06:43:48;;;;;;;1.67;0.90;;;14.80;1.00;;;;;;5105035;28;20185;-56
2021/05/16 06:46:13;;;;;;;3.20;0.80;;;14.80;1.00;;;;;;5111327;28;20493;-56
2021/05/16 06:48:39;;;;;;;1.47;0.80;;;14.70;1.00;;;;;;5109358;28;20455;-55
2021/05/16 06:51:05;;;;;;;1.17;0.60;;;14.60;1.00;;;;;;5112505;28;20678;-57
2021/05/16 06:53:32;;;;;;;1.40;0.80;;;14.60;1.00;;;;;;5111755;28;20221;-57
2021/05/16 06:55:58;;;;;;;1.17;0.87;;;14.60;1.00;;;;;;5110186;28;20458;-55
2021/05/16 06:58:23;;;;;;;1.60;0.80;;;14.70;1.00;;;;;;5108947;28;20451;-56
2021/05/16 07:00:49;;;;;;;6.40;2.50;;;14.70;1.00;;;;;;5112770;28;20268;-56
2021/05/16 07:03:14;;;;;;;2.23;1.23;;;14.90;1.00;;;;;;5094598;28;20185;-56
2021/05/16 07:05:40;;;;;;;2.00;0.70;;;15.10;1.00;;;;;;5113111;28;20302;-57
2021/05/16 07:08:06;;;;;;;1.33;0.93;;;15.20;1.00;;;;;;5113305;27;20196;-56
2021/05/16 07:10:31;;;;;;;2.17;0.90;;;15.60;1.00;;;;;;5114595;28;20262;-57
2021/05/16 07:12:58;;;;;;;3.70;1.00;;;15.70;1.00;;;;;;5095495;28;20281;-56
2021/05/16 07:15:25;;;;;;;5.30;1.20;;;15.70;1.00;;;;;;5113777;28;20184;-56
2021/05/16 07:17:51;;;;;;;2.77;1.40;;;15.70;1.00;;;;;;5103386;27;20521;-56
2021/05/16 07:20:16;;;;;;;3.70;1.60;;;15.60;1.00;;;;;;5109277;27;20534;-59
2021/05/16 07:22:42;;;;;;;1.23;0.90;;;15.70;1.00;;;;;;5110003;27;20190;-57
2021/05/16 07:25:08;;;;;;;4.20;1.30;;;15.70;1.00;;;;;;5107139;27;20288;-56
2021/05/16 07:27:33;;;;;;;4.40;1.20;;;15.80;1.00;;;;;;5113202;27;20267;-55
2021/05/16 07:29:59;;;;;;;4.27;1.23;;;15.90;1.00;;;;;;5114013;27;20451;-57
2021/05/16 07:32:25;;;;;;;3.00;1.10;;;16.30;1.00;;;;;;5090482;27;20181;-55
2021/05/16 07:34:50;;;;;;;2.47;1.00;;;16.30;1.00;;;;;;5099746;27;20219;-56
2021/05/16 07:37:16;;;;;;;3.33;1.47;;;16.00;1.00;;;;;;5112208;27;20268;-57
2021/05/16 07:39:42;;;;;;;3.23;1.13;;;16.00;1.00;;;;;;5105587;27;20175;-56
2021/05/16 07:42:08;;;;;;;4.80;1.07;;;15.90;1.00;;;;;;5105873;27;20182;-55
2021/05/16 07:44:33;;;;;;;3.60;1.33;;;15.70;1.00;;;;;;5106256;27;20446;-56
2021/05/16 07:46:59;;;;;;;1.83;1.30;;;15.70;1.00;;;;;;5107999;27;20205;-57
2021/05/16 07:49:25;;;;;;;4.20;1.17;;;16.00;1.00;;;;;;5108171;27;20269;-57
2021/05/16 07:51:50;;;;;;;3.13;1.30;;;16.00;1.00;;;;;;5107447;27;20641;-58
2021/05/16 07:54:16;;;;;;;5.63;1.20;;;16.00;1.00;;;;;;5098598;27;20194;-57
2021/05/16 07:56:41;;;;;;;1.67;1.00;;;16.00;1.00;;;;;;5102924;27;20863;-59
2021/05/16 07:59:07;;;;;;;5.80;1.47;;;16.30;1.00;;;;;;5081592;28;20183;-57
2021/05/16 08:01:32;;;;;;;3.60;1.30;;;17.00;1.00;;;;;;5113155;27;20182;-56
2021/05/16 08:03:58;;;;;;;3.10;1.40;;;17.30;1.00;;;;;;5113253;27;20205;-58
2021/05/16 08:06:24;;;;;;;2.43;0.90;;;17.50;1.00;;;;;;5106100;27;20201;-59
2021/05/16 08:08:50;;;;;;;2.37;1.40;;;17.60;1.00;;;;;;5110947;27;20588;-56
2021/05/16 08:11:16;;;;;;;3.20;1.13;;;17.60;1.00;;;;;;5102990;28;20174;-56
2021/05/16 08:13:41;;;;;;;2.30;1.10;;;17.50;1.00;;;;;;5105664;27;20178;-56
2021/05/16 08:16:07;;;;;;;3.43;1.60;;;17.10;1.00;;;;;;5105814;27;20440;-57
2021/05/16 08:18:32;;;;;;;2.63;1.10;;;17.00;1.00;;;;;;5080551;28;20214;-55
2021/05/16 08:20:58;;;;;;;3.77;1.10;;;16.80;1.00;;;;;;5104918;27;20249;-56
2021/05/16 08:23:24;;;;;;;3.47;1.27;;;16.90;1.00;;;;;;5112546;27;20193;-56
2021/05/16 08:25:49;;;;;;;1.70;0.90;;;16.90;1.00;;;;;;5112285;27;20247;-57
2021/05/16 08:28:15;;;;;;;2.50;1.10;;;16.90;1.00;;;;;;5112517;27;20185;-57
2021/05/16 08:30:41;;;;;;;2.30;0.90;;;17.00;1.00;;;;;;5112691;27;20621;-56
2021/05/16 08:33:07;;;;;;;2.30;0.90;;;17.10;1.00;;;;;;5107914;27;20216;-57
2021/05/16 08:35:34;;;;;;;1.30;1.00;;;17.30;1.00;;;;;;5112428;27;20500;-57
2021/05/16 08:38:00;;;;;;;3.30;1.10;;;17.70;1.00;;;;;;5117978;27;20192;-56
2021/05/16 08:40:25;;;;;;;5.27;1.43;;;17.80;1.00;;;;;;5111709;27;20439;-56
2021/05/16 08:42:51;;;;;;;2.87;1.50;;;17.70;1.00;;;;;;5111774;28;20182;-58
2021/05/16 08:45:17;;;;;;;2.90;1.30;;;17.80;1.00;;;;;;5115215;27;20271;-58
2021/05/16 08:47:45;;;;;;;3.90;1.17;;;17.90;1.00;;;;;;5096494;27;20175;-59
2021/05/16 08:50:13;;;;;;;2.10;1.10;;;17.90;1.00;;;;;;5114494;27;20462;-58
2021/05/16 08:52:38;;;;;;;3.43;2.27;;;17.90;1.00;;;;;;5093870;28;20467;-57
2021/05/16 08:55:06;;;;;;;2.43;1.10;;;18.10;1.00;;;;;;5113098;27;20409;-58
2021/05/16 08:57:31;;;;;;;2.17;1.03;;;18.20;1.00;;;;;;5109221;27;20315;-57
2021/05/16 09:00:19;;;;;;;1.90;1.10;;;18.30;1.00;;;;;;5111693;27;20534;-55
2021/05/16 09:03:18;;;;;;;1.50;0.80;;;18.80;1.00;;;;;;5109028;27;20230;-56
2021/05/16 09:05:52;;;;;;;3.40;1.17;;;19.00;1.00;;;;;;5065679;28;20443;-58
2021/05/16 09:08:25;;;;;;;4.03;0.77;;;19.10;1.00;;;;;;5108275;28;20938;-57
2021/05/16 09:10:59;;;;;;;3.00;1.40;;;18.90;1.00;;;;;;5107209;27;20432;-57
2021/05/16 09:13:29;;;;;;;2.37;1.03;;;19.10;1.00;;;;;;5111318;27;20480;-57
2021/05/16 09:16:04;;;;;;;1.83;1.10;;;19.30;1.00;;;;;;5109473;27;20501;-56
2021/05/16 09:18:51;;;;;;;2.97;1.03;;;19.70;1.00;;;;;;5090183;27;20462;-57
2021/05/16 09:21:28;;;;;;;1.90;1.27;;;20.00;1.00;;;;;;5110112;27;20455;-56
2021/05/16 09:24:00;;;;;;;1.70;0.83;;;20.00;1.00;;;;;;5105852;27;20438;-57
2021/05/16 09:26:56;;;;;;;1.37;1.00;;;19.30;1.00;;;;;;5090240;28;20468;-56
2021/05/16 09:29:28;;;;;;;2.97;1.07;;;19.30;1.00;;;;;;5101287;28;20781;-57
2021/05/16 09:31:55;;;;;;;1.70;1.00;;;19.40;1.00;;;;;;5111584;28;20736;-56
2021/05/16 09:34:21;;;;;;;2.10;0.80;;;19.60;1.00;;;;;;5109891;28;20449;-57
2021/05/16 09:36:48;;;;;;;2.07;0.90;;;19.90;1.00;;;;;;5111514;27;20475;-56
2021/05/16 09:39:27;;;;;;;1.80;1.00;;;19.80;1.00;;;;;;5111426;28;20642;-56
2021/05/16 09:42:07;;;;;;;1.27;0.70;;;20.00;1.00;;;;;;5111168;28;20446;-57
2021/05/16 09:44:47;;;;;;;1.90;0.90;;;20.20;1.00;;;;;;5108432;28;20436;-55
2021/05/16 09:47:27;;;;;;;2.97;1.10;;;20.00;1.00;;;;;;5110873;27;21001;-56
2021/05/16 09:49:55;;;;;;;2.33;1.30;;;19.60;1.00;;;;;;5111153;28;20481;-57
2021/05/16 09:52:26;;;;;;;3.30;1.40;;;19.30;1.00;;;;;;5109318;28;20921;-56
2021/05/16 09:54:56;;;;;;;2.20;0.80;;;19.50;1.00;;;;;;5105664;27;20844;-58
2021/05/16 09:57:22;;;;;;;1.37;1.00;;;19.80;1.00;;;;;;5103336;27;20432;-56
2021/05/16 09:59:48;;;;;;;1.53;0.90;;;20.10;1.00;;;;;;5093042;28;20814;-57
2021/05/16 10:02:15;;;;;;;2.93;1.00;;;20.30;1.00;;;;;;5092658;27;20491;-58
2021/05/16 10:04:42;;;;;;;1.57;0.67;;;20.30;1.00;;;;;;5094263;28;20180;-58
2021/05/16 10:07:08;;;;;;;2.03;1.40;;;20.40;1.00;;;;;;5072357;28;20480;-58
2021/05/16 10:09:34;;;;;;;2.70;1.13;;;20.60;1.00;;;;;;5089576;27;20498;-59
2021/05/16 10:12:03;;;;;;;3.43;1.00;;;20.60;1.00;;;;;;5078826;27;20431;-58
2021/05/16 10:14:30;;;;;;;3.10;1.30;;;20.50;1.00;;;;;;5093566;28;20641;-57
2021/05/16 10:16:58;;;;;;;1.40;1.20;;;20.20;1.00;;;;;;5103130;27;20891;-58
2021/05/16 10:19:30;;;;;;;1.67;0.70;;;19.80;1.00;;;;;;5110402;28;20472;-57
2021/05/16 10:22:18;;;;;;;1.50;1.37;;;19.50;1.00;;;;;;5112595;28;20509;-57
2021/05/16 10:24:50;;;;;;;2.67;1.10;;;19.30;1.00;;;;;;5108577;28;20480;-59
2021/05/16 10:27:28;;;;;;;1.70;1.20;;;19.40;1.00;;;;;;5109909;28;20955;-58
2021/05/16 10:30:02;;;;;;;2.60;0.73;;;19.50;1.00;;;;;;5104728;28;20815;-59
2021/05/16 10:32:38;;;;;;;1.70;0.87;;;19.50;1.00;;;;;;5110186;28;20785;-59
2021/05/16 10:35:09;;;;;;;1.53;0.73;;;19.60;1.00;;;;;;5106437;28;20560;-58
2021/05/16 10:37:55;;;;;;;4.73;0.90;;;19.40;1.00;;;;;;5110315;28;20435;-57
2021/05/16 10:40:23;;;;;;;1.50;1.13;;;19.10;1.00;;;;;;5113332;28;20466;-58
2021/05/16 10:42:56;;;;;;;3.80;0.67;;;19.10;1.00;;;;;;5106263;28;20452;-58
2021/05/16 10:45:24;;;;;;;2.47;0.87;;;19.10;1.00;;;;;;5107567;28;20459;-58
2021/05/16 10:47:52;;;;;;;1.07;0.70;;;19.40;1.00;;;;;;5096051;28;20412;-58
2021/05/16 10:50:23;;;;;;;1.90;1.00;;;19.90;1.00;;;;;;5097346;28;20505;-58
2021/05/16 10:53:03;;;;;;;1.83;1.00;;;21.70;1.00;;;;;;5098540;28;20828;-59
2021/05/16 10:55:42;;;;;;;1.90;0.90;;;20.40;1.00;;;;;;5098225;28;20904;-58
2021/05/16 10:58:31;;;;;;;2.70;1.43;;;20.00;1.00;;;;;;5104617;28;20495;-58
2021/05/16 11:01:04;;;;;;;2.73;1.00;;;19.90;1.00;;;;;;5100877;28;20446;-58
2021/05/16 11:03:43;;;;;;;1.87;0.90;;;20.20;1.00;;;;;;5107109;28;20444;-57
2021/05/16 11:06:09;;;;;;;1.43;1.10;;;20.20;1.00;;;;;;5093789;28;20455;-59
2021/05/16 11:08:34;;;;;;;2.03;0.90;;;20.60;1.00;;;;;;5106156;28;20521;-59
2021/05/16 11:11:02;;;;;;;2.07;0.90;;;20.80;1.00;;;;;;5110304;28;20659;-59
2021/05/16 11:13:33;;;;;;;1.17;0.80;;;21.10;1.00;;;;;;5108291;28;20186;-58
2021/05/16 11:16:07;;;;;;;3.27;1.40;;;21.20;1.00;;;;;;5110083;28;20424;-58
2021/05/16 11:18:36;;;;;;;2.17;0.90;;;21.30;1.00;;;;;;5109908;28;20424;-58
2021/05/16 11:21:07;;;;;;;3.07;1.03;;;20.90;1.00;;;;;;5105637;28;20454;-59
2021/05/16 11:23:40;;;;;;;1.87;0.97;;;20.60;1.00;;;;;;5107699;28;20440;-58
2021/05/16 11:26:11;;;;;;;2.10;0.77;;;20.10;1.00;;;;;;5102094;28;20501;-58
2021/05/16 11:28:39;;;;;;;3.60;1.73;;;20.10;1.00;;;;;;5098874;28;20447;-58
2021/05/16 11:31:13;;;;;;;2.40;0.70;;;20.40;1.00;;;;;;5077343;28;20720;-57
2021/05/16 11:33:40;;;;;;;2.50;1.00;;;20.40;1.00;;;;;;5113768;28;20417;-59
2021/05/16 11:36:11;;;;;;;2.50;1.10;;;20.30;1.00;;;;;;5095000;28;20475;-58
2021/05/16 11:38:39;;;;;;;2.80;1.10;;;20.20;1.00;;;;;;5113376;28;20821;-57
2021/05/16 11:41:05;;;;;;;1.87;1.13;;;20.30;1.00;;;;;;5094722;28;20554;-58
2021/05/16 11:43:41;;;;;;;1.80;0.87;;;20.50;1.00;;;;;;5103396;27;20476;-58
2021/05/16 11:46:07;;;;;;;2.30;1.60;;;20.50;1.00;;;;;;5099130;28;20485;-57
2021/05/16 11:48:42;;;;;;;3.37;1.10;;;20.60;1.00;;;;;;5082535;28;20437;-57
2021/05/16 11:51:14;;;;;;;3.93;1.00;;;20.70;1.00;;;;;;5110403;28;20631;-57
2021/05/16 11:53:42;;;;;;;3.10;1.27;;;20.90;1.00;;;;;;5113257;28;20476;-58
2021/05/16 11:56:16;;;;;;;2.67;1.73;;;21.10;1.00;;;;;;5112380;28;20462;-58
2021/05/16 11:58:54;;;;;;;3.60;1.13;;;21.50;1.00;;;;;;5112713;28;20442;-58
2021/05/16 12:01:22;;;;;;;2.23;0.90;;;21.70;1.00;;;;;;5111822;28;20425;-57
2021/05/16 12:03:51;;;;;;;1.30;1.10;;;21.80;1.00;;;;;;5113172;28;20419;-58
2021/05/16 12:06:17;;;;;;;1.60;1.00;;;21.90;1.00;;;;;;5088315;28;20442;-57
2021/05/16 12:08:42;;;;;;;2.30;1.20;;;22.00;1.00;;;;;;5098928;28;20505;-57
2021/05/16 12:11:13;;;;;;;1.50;1.10;;;22.20;1.00;;;;;;5112700;28;20196;-57
2021/05/16 12:13:39;;;;;;;3.90;1.20;;;22.50;1.00;;;;;;5112236;28;20180;-59
2021/05/16 12:16:17;;;;;;;2.20;1.17;;;23.10;1.00;;;;;;5113060;28;20439;-57
2021/05/16 12:18:43;;;;;;;2.00;1.03;;;23.20;1.00;;;;;;5093180;28;20569;-58
2021/05/16 12:21:09;;;;;;;2.00;1.10;;;23.00;1.00;;;;;;5102533;28;20775;-58
2021/05/16 12:23:37;;;;;;;2.60;0.90;;;22.90;1.00;;;;;;5113023;28;20451;-58
2021/05/16 12:26:03;;;;;;;2.33;1.10;;;22.70;1.00;;;;;;5112652;28;20434;-58
2021/05/16 12:28:30;;;;;;;2.43;0.90;;;22.60;1.00;;;;;;5094296;28;20461;-58
2021/05/16 12:30:58;;;;;;;2.27;1.00;;;22.60;1.00;;;;;;5111954;28;20979;-57
2021/05/16 12:33:23;;;;;;;1.77;0.90;;;23.10;1.00;;;;;;5088474;28;20414;-57
2021/05/16 12:35:49;;;;;;;2.70;0.80;;;22.10;1.00;;;;;;5108042;28;20471;-58
2021/05/16 12:38:16;;;;;;;2.17;1.00;;;21.50;1.00;;;;;;5094218;28;20194;-57
2021/05/16 12:40:42;;;;;;;2.90;0.97;;;21.60;1.00;;;;;;5107864;28;20490;-57
2021/05/16 12:43:10;;;;;;;2.47;1.20;;;21.40;1.00;;;;;;5080003;28;20845;-59
2021/05/16 12:45:37;;;;;;;2.90;1.20;;;21.20;1.00;;;;;;5112720;28;20558;-57
2021/05/16 12:48:11;;;;;;;1.20;0.60;;;21.40;1.00;;;;;;5112309;28;20447;-58
2021/05/16 12:50:49;;;;;;;1.60;1.30;;;21.50;1.00;;;;;;5093191;28;20439;-59
2021/05/16 12:53:26;;;;;;;1.70;1.00;;;21.40;1.00;;;;;;5112457;28;20485;-58
2021/05/16 12:56:16;;;;;;;5.03;1.37;;;21.70;1.00;;;;;;5112159;28;20552;-59